1999 26F (1999140S16157)


On this page: IBTrACS data - Map and Plots - Positions - Intensities - Original source data

Summary

Start May 20
End May 27
Basin SP
LMI 55 kt
Source wellington
In WMO? Yes
Previous storm 1999 MISSING (NI)
Previous in basin 1999 HALI (SP)
Concurrent storms 1999 MISSING (NI)
1999 26F (SP)
Next in basin Missing
Next storm 1999 MAGGIE (WP)

top of page IBTrACS Data: File Access

top of page HURSAT Data: File Access

Image of storm

top of page Plots:

Map of storm track will not appear if FTP is down
Time series of cyclone Maximum Sustained Wind will not appear if FTP is down
Time series of cyclone Minimum Central Pressure will not appear if FTP is down

top of page Track Data:Position

wellington
Date Lat Lon
1999-05-20 06:00:00 -15.5 156.5
1999-05-20 12:00:00 -16.0 160.0
1999-05-20 18:00:00 -16.6 161.4
1999-05-21 00:00:00 -18.0 162.0
1999-05-21 06:00:00 -20.0 162.5
1999-05-21 12:00:00 -21.0 162.3
1999-05-21 18:00:00 -22.0 161.9
1999-05-22 00:00:00 -22.8 161.6
1999-05-22 06:00:00 -23.3 161.9
1999-05-22 12:00:00 -23.8 162.2
1999-05-22 18:00:00 -24.6 162.3
1999-05-23 00:00:00 -25.5 162.0
1999-05-23 06:00:00 -26.5 161.5
1999-05-23 12:00:00 -27.4 161.1
1999-05-23 18:00:00 -28.3 160.6
1999-05-24 00:00:00 -29.5 160.0
1999-05-24 06:00:00 -30.5 159.9
1999-05-24 12:00:00 -31.0 159.8
1999-05-24 18:00:00 -33.6 159.9
1999-05-25 00:00:00 -35.9 160.3
1999-05-25 06:00:00 -37.8 160.6
1999-05-25 12:00:00 -40.5 161.2
1999-05-25 18:00:00 -44.0 162.5
1999-05-26 00:00:00 -46.5 164.0
1999-05-26 06:00:00 -49.5 166.0
wellington
1999-05-26 12:00:00 -52.0 168.5
1999-05-26 18:00:00 -55.5 173.0
1999-05-27 00:00:00 -57.5 177.5
1999-05-27 06:00:00 -59.0 -178.0
1999-05-27 12:00:00 -60.5 -174.0

top of pageTrack Data:Intensity

wellington
Date Wind Pres
1999-05-20 06:00:00 25. 1002.
1999-05-20 12:00:00 25. 1006.
1999-05-20 18:00:00 25. 1003.
1999-05-21 00:00:00 30. 999.
1999-05-21 06:00:00 40. 992.
1999-05-21 12:00:00 40. 992.
1999-05-21 18:00:00 40. 992.
1999-05-22 00:00:00 40. 992.
1999-05-22 06:00:00 40. 992.
1999-05-22 12:00:00 40. 992.
1999-05-22 18:00:00 40. 992.
1999-05-23 00:00:00 40. 992.
1999-05-23 06:00:00 50. 990.
1999-05-23 12:00:00 50. 990.
1999-05-23 18:00:00 50. 990.
1999-05-24 00:00:00 50. 990.
1999-05-24 06:00:00 50. 990.
1999-05-24 12:00:00 50. 986.
1999-05-24 18:00:00 50. 986.
1999-05-25 00:00:00 55. 986.
1999-05-25 06:00:00 55. 986.
1999-05-25 12:00:00 55. 986.
1999-05-25 18:00:00 55. 980.
1999-05-26 00:00:00 55. 982.
1999-05-26 06:00:00 50. 978.
wellington
1999-05-26 12:00:00 45. 972.
1999-05-26 18:00:00 45. 972.
1999-05-27 00:00:00 40. 972.
1999-05-27 06:00:00 30. 976.
1999-05-27 12:00:00 30. 976.

top of page Links to source data

Source Source file Format
wellington TC_BT_1967_2006.csv:Line=6497:26F Text table